Port Au Choix, Canada
Current Conditions -  °F | °C
As of 5:00 PM on Tuesday 21 Oct 2014 (Local Time) from CWDH Reporting Station
Clear Clear  
Wind Chill:   Ceiling: Unl
Heat Index:   Visibility: 9mi
Dew Point:   Wind: 8mph
Humidity: 66%   Direction: 250°WSW
Pressure: 30.03"   Gusts: NA
Location:  50.72°N, 57.37°W
Report Text: CWDH 211900Z AUTO 25007KT 9SM NSC 07/01 A3003 RMK SLP170 T00660006 70071 WSI/SWOB
Loading
Personal Weather Stations






























Interactive Weather Map
Tropical Storm Tracking
New forecast layout! Learn more

10-Day Weather Forecast

Advertisements
Track Severe Weather on mobile